Time;durP1;ratioP1;P1;durP2;ratioP2;P2;SDS_P1;SDS_P2;PMS_P1;PMS_P2;Temp;Humidity;BMP_temperature;BMP_pressure;BME280_temperature;BME280_humidity;BME280_pressure;Samples;Min_cycle;Max_cycle;Signal;HPM_P1;HPM_P2
2024/03/16 00:01:26;;;;;;;22.85;12.85;;;;;;;7.03;100.00;100123.22;6239255;28;20046;-68
2024/03/16 00:04:29;;;;;;;23.65;12.77;;;;;;;7.06;100.00;100123.09;6224579;28;20406;-68
2024/03/16 00:07:30;;;;;;;23.27;12.90;;;;;;;7.00;100.00;100125.13;6223470;28;20050;-69
2024/03/16 00:10:31;;;;;;;24.23;12.00;;;;;;;7.00;100.00;100123.38;6223760;28;20054;-68
2024/03/16 00:13:34;;;;;;;21.17;12.57;;;;;;;6.98;100.00;100126.94;6288781;28;20503;-68
2024/03/16 00:16:35;;;;;;;;;;;;;;;6.96;100.00;100131.34;6273830;28;20053;-68
2024/03/16 00:19:37;;;;;;;26.60;11.57;;;;;;;6.96;100.00;100120.97;6271707;28;19973;-68
2024/03/16 00:22:38;;;;;;;23.17;13.27;;;;;;;6.93;100.00;100121.13;6272114;28;20080;-68
2024/03/16 00:25:41;;;;;;;25.27;11.73;;;;;;;6.92;100.00;100124.63;6272407;28;20051;-68
2024/03/16 00:28:42;;;;;;;21.35;11.10;;;;;;;6.96;100.00;100121.84;6272792;28;20064;-68
2024/03/16 00:31:43;;;;;;;21.30;11.70;;;;;;;6.94;100.00;100120.19;6271127;28;20084;-68
2024/03/16 00:34:44;;;;;;;20.95;12.05;;;;;;;6.95;100.00;100116.72;6271580;28;20095;-68
2024/03/16 00:37:46;;;;;;;22.52;11.52;;;;;;;6.92;100.00;100120.28;6271654;28;20049;-68
2024/03/16 00:40:47;;;;;;;20.90;11.07;;;;;;;6.96;100.00;100113.19;6271580;28;20477;-68
2024/03/16 00:43:49;;;;;;;20.77;11.00;;;;;;;6.97;100.00;100112.28;6271714;28;20119;-68
2024/03/16 00:46:50;;;;;;;28.57;11.43;;;;;;;6.89;100.00;100114.41;6247031;28;20045;-68
2024/03/16 00:49:51;;;;;;;19.55;11.38;;;;;;;6.95;100.00;100114.13;6246968;28;20563;-68
2024/03/16 00:52:52;;;;;;;21.83;10.45;;;;;;;6.89;100.00;100114.41;6246988;28;20136;-69
2024/03/16 00:55:55;;;;;;;24.02;11.20;;;;;;;6.92;100.00;100119.44;6246413;28;20379;-68
2024/03/16 00:58:56;;;;;;;19.33;11.00;;;;;;;6.91;100.00;100112.56;6246337;28;20600;-68
2024/03/16 01:01:57;;;;;;;20.20;11.02;;;;;;;6.84;100.00;100109.41;6228946;28;20474;-68
2024/03/16 01:04:58;;;;;;;22.92;11.65;;;;;;;6.77;100.00;100110.59;6223031;28;20509;-68
2024/03/16 01:08:03;;;;;;;21.98;10.88;;;;;;;6.78;100.00;100112.28;6238070;28;20046;-68
2024/03/16 01:11:05;;;;;;;25.63;12.13;;;;;;;6.76;100.00;100114.94;6238352;28;20147;-68
2024/03/16 01:14:08;;;;;;;18.88;10.75;;;;;;;6.73;100.00;100109.03;6222792;28;20076;-68
2024/03/16 01:17:09;;;;;;;19.52;10.95;;;;;;;6.65;100.00;100107.63;6237346;28;20041;-68
2024/03/16 01:20:10;;;;;;;17.42;10.13;;;;;;;6.63;100.00;100112.03;6222047;28;20057;-69
2024/03/16 01:23:14;;;;;;;24.40;11.23;;;;;;;6.61;100.00;100116.47;6222990;28;20471;-69
2024/03/16 01:26:16;;;;;;;19.30;11.25;;;;;;;6.60;100.00;100100.97;6237765;28;20077;-68
2024/03/16 01:29:19;;;;;;;20.08;11.75;;;;;;;6.56;100.00;100096.81;6222799;28;20046;-68
2024/03/16 01:32:20;;;;;;;20.35;11.23;;;;;;;6.62;100.00;100099.97;6222668;28;20058;-68
2024/03/16 01:35:24;;;;;;;19.20;10.43;;;;;;;6.64;100.00;100105.94;6237698;28;20497;-68
2024/03/16 01:38:24;;;;;;;23.67;11.55;;;;;;;6.62;100.00;100091.38;6227122;28;20060;-68
2024/03/16 01:41:25;;;;;;;18.77;10.85;;;;;;;6.64;100.00;100105.09;6234902;28;20049;-68
2024/03/16 01:44:27;;;;;;;22.50;11.68;;;;;;;6.62;100.00;100094.78;6272806;28;20500;-68
2024/03/16 01:47:31;;;;;;;21.75;11.43;;;;;;;6.60;100.00;100090.59;6275059;28;20138;-68
2024/03/16 01:50:32;;;;;;;19.55;11.55;;;;;;;6.69;100.00;100097.94;6275406;28;20473;-68
2024/03/16 01:53:34;;;;;;;23.17;11.50;;;;;;;6.72;100.00;100097.00;6276680;28;20084;-68
2024/03/16 01:56:35;;;;;;;22.67;11.73;;;;;;;6.75;100.00;100097.69;6276781;28;20059;-68
2024/03/16 01:59:36;;;;;;;23.45;12.50;;;;;;;6.72;100.00;100092.66;6274093;28;20128;-68
2024/03/16 02:02:40;;;;;;;22.65;12.45;;;;;;;6.72;100.00;100094.41;6276488;28;20056;-68
2024/03/16 02:05:42;;;;;;;18.08;11.10;;;;;;;6.71;100.00;100096.13;6276040;28;20106;-68
2024/03/16 02:08:43;;;;;;;19.73;10.93;;;;;;;6.69;100.00;100099.72;6276231;28;20061;-68
2024/03/16 02:11:44;;;;;;;19.52;10.35;;;;;;;6.68;100.00;100096.28;6276275;28;20496;-68
2024/03/16 02:14:45;;;;;;;23.90;11.45;;;;;;;6.58;100.00;100101.03;6276205;28;20076;-68
2024/03/16 02:17:46;;;;;;;20.88;11.65;;;;;;;6.59;100.00;100104.44;6274982;28;20041;-68
2024/03/16 02:20:47;;;;;;;22.63;10.80;;;;;;;6.60;100.00;100098.38;6275383;28;20053;-68
2024/03/16 02:23:48;;;;;;;21.42;12.20;;;;;;;6.55;100.00;100108.94;6274908;28;20070;-68
2024/03/16 02:26:51;;;;;;;21.83;10.55;;;;;;;6.54;100.00;100099.47;6274462;28;20060;-68
2024/03/16 02:29:55;;;;;;;19.88;10.65;;;;;;;6.55;100.00;100105.53;6274368;28;20055;-68
2024/03/16 02:32:56;;;;;;;22.00;11.77;;;;;;;6.51;100.00;100106.56;6274472;28;20140;-68
2024/03/16 02:35:57;;;;;;;20.10;10.82;;;;;;;6.50;100.00;100110.03;6275969;28;20139;-68
2024/03/16 02:38:58;;;;;;;19.15;11.05;;;;;;;6.47;100.00;100107.59;6273655;28;20059;-68
2024/03/16 02:42:00;;;;;;;23.47;13.17;;;;;;;6.51;100.00;100109.16;6274131;28;20060;-68
2024/03/16 02:45:01;;;;;;;19.40;12.07;;;;;;;6.51;100.00;100110.00;6273954;28;20057;-68
2024/03/16 02:48:02;;;;;;;18.67;10.65;;;;;;;6.47;100.00;100110.19;6250778;28;20972;-68
2024/03/16 02:51:03;;;;;;;20.80;11.80;;;;;;;6.41;100.00;100109.53;6249876;28;20060;-68
2024/03/16 02:54:04;;;;;;;22.52;11.35;;;;;;;6.37;100.00;100113.16;6250280;28;20053;-68
2024/03/16 02:57:05;;;;;;;20.80;11.13;;;;;;;6.37;100.00;100107.16;6248777;28;20477;-68
2024/03/16 03:00:12;;;;;;;22.33;11.93;;;;;;;6.41;100.00;100113.88;6248141;28;20060;-68
2024/03/16 03:03:13;;;;;;;23.52;11.63;;;;;;;6.34;100.00;100117.63;6248902;28;20050;-68
2024/03/16 03:06:14;;;;;;;25.70;12.10;;;;;;;6.24;100.00;100117.19;6250047;28;20049;-68
2024/03/16 03:09:15;;;;;;;20.02;10.70;;;;;;;6.18;100.00;100120.88;6264593;28;20095;-68
2024/03/16 03:12:16;;;;;;;24.38;12.48;;;;;;;6.16;100.00;100122.69;6248999;28;20057;-69
2024/03/16 03:15:18;;;;;;;20.00;10.45;;;;;;;6.07;100.00;100120.47;6250361;28;20053;-69
2024/03/16 03:18:19;;;;;;;25.08;12.38;;;;;;;6.01;100.00;100124.19;6248578;28;20125;-68
2024/03/16 03:21:20;;;;;;;21.10;10.75;;;;;;;5.95;100.00;100116.66;6249955;28;20060;-68
2024/03/16 03:24:21;;;;;;;21.38;10.80;;;;;;;5.93;100.00;100115.84;6250032;28;20057;-69
2024/03/16 03:27:22;;;;;;;20.98;11.05;;;;;;;5.95;100.00;100127.00;6249517;28;20510;-68
2024/03/16 03:30:23;;;;;;;21.40;10.77;;;;;;;5.99;100.00;100131.16;6249716;28;20049;-69
2024/03/16 03:33:24;;;;;;;19.77;10.63;;;;;;;6.02;100.00;100130.19;6249115;28;20061;-69
2024/03/16 03:36:25;;;;;;;16.55;9.57;;;;;;;6.03;100.00;100139.63;6248683;28;20601;-68
2024/03/16 03:39:26;;;;;;;21.60;10.23;;;;;;;5.95;100.00;100139.97;6248087;28;20049;-69
2024/03/16 03:42:29;;;;;;;20.75;12.00;;;;;;;5.88;100.00;100146.25;6249433;28;20077;-69
2024/03/16 03:45:50;;;;;;;23.80;11.43;;;;;;;5.82;100.00;100142.16;6249199;28;20644;-68
2024/03/16 03:49:00;;;;;;;20.42;10.68;;;;;;;5.88;100.00;100145.41;6249219;28;20049;-68
2024/03/16 03:52:02;;;;;;;21.27;10.98;;;;;;;5.86;100.00;100148.06;6248654;28;20057;-68
2024/03/16 03:55:05;;;;;;;21.60;11.32;;;;;;;5.96;100.00;100145.97;6249305;28;20056;-68
2024/03/16 03:58:05;;;;;;;18.27;10.35;;;;;;;5.95;100.00;100139.09;6247547;28;20085;-68
2024/03/16 04:01:07;;;;;;;22.23;12.20;;;;;;;5.89;100.00;100135.00;6248342;28;20049;-68
2024/03/16 04:04:08;;;;;;;20.67;11.37;;;;;;;5.87;100.00;100147.16;6248986;28;20730;-68
2024/03/16 04:07:09;;;;;;;19.67;9.80;;;;;;;5.85;100.00;100141.22;6247474;28;20049;-68
2024/03/16 04:10:09;;;;;;;23.73;11.80;;;;;;;5.86;100.00;100150.66;6247588;28;20470;-68
2024/03/16 04:13:11;;;;;;;22.58;11.88;;;;;;;5.87;100.00;100144.56;6248643;28;20052;-68
2024/03/16 04:16:14;;;;;;;20.00;10.53;;;;;;;5.89;100.00;100162.63;6247994;28;20053;-68
2024/03/16 04:19:16;;;;;;;17.77;10.20;;;;;;;5.83;100.00;100153.38;6247730;28;20045;-68
2024/03/16 04:22:17;;;;;;;21.40;10.90;;;;;;;5.79;100.00;100149.22;6248024;28;20049;-68
2024/03/16 04:25:18;;;;;;;20.23;10.38;;;;;;;5.74;100.00;100157.16;6246727;28;20418;-68
2024/03/16 04:28:19;;;;;;;18.92;10.07;;;;;;;5.67;100.00;100150.53;6248410;28;20092;-68
2024/03/16 04:31:20;;;;;;;20.63;10.37;;;;;;;5.70;100.00;100155.56;6248136;28;20058;-68
2024/03/16 04:34:25;;;;;;;22.50;10.63;;;;;;;5.75;100.00;100161.44;6247102;28;20052;-68
2024/03/16 04:37:26;;;;;;;17.25;9.52;;;;;;;5.73;100.00;100170.19;6248003;28;20045;-68
2024/03/16 04:40:27;;;;;;;16.95;9.45;;;;;;;5.67;100.00;100166.06;6247723;28;20072;-68
2024/03/16 04:43:28;;;;;;;20.17;10.23;;;;;;;5.71;100.00;100167.63;6246804;28;20529;-68
2024/03/16 04:46:32;;;;;;;19.08;8.93;;;;;;;5.64;100.00;100161.88;6247788;28;20053;-68
2024/03/16 04:49:36;;;;;;;17.38;9.43;;;;;;;5.60;100.00;100164.59;6248160;28;20085;-68
2024/03/16 04:52:37;;;;;;;22.58;10.95;;;;;;;5.60;100.00;100167.19;6247624;28;20072;-68
2024/03/16 04:55:38;;;;;;;21.63;10.80;;;;;;;5.58;100.00;100169.00;6246528;28;20084;-68
2024/03/16 04:58:39;;;;;;;17.65;9.77;;;;;;;5.57;100.00;100164.75;6245872;28;20061;-68
2024/03/16 05:01:41;;;;;;;21.10;10.80;;;;;;;5.51;100.00;100168.41;6245587;28;20417;-69
2024/03/16 05:04:42;;;;;;;21.20;10.35;;;;;;;5.50;100.00;100166.72;6246532;28;20053;-69
2024/03/16 05:07:45;;;;;;;20.77;10.75;;;;;;;5.53;100.00;100176.13;6246489;28;20080;-68
2024/03/16 05:10:51;;;;;;;23.00;11.88;;;;;;;5.45;100.00;100169.47;6247293;28;20049;-68
2024/03/16 05:13:52;;;;;;;25.77;10.70;;;;;;;5.61;100.00;100177.50;6247495;28;20087;-68
2024/03/16 05:16:53;;;;;;;20.88;10.80;;;;;;;5.63;100.00;100178.28;6246512;28;20050;-68
2024/03/16 05:19:54;;;;;;;22.65;10.68;;;;;;;5.63;100.00;100182.63;6246229;28;20103;-68
2024/03/16 05:23:00;;;;;;;22.53;12.20;;;;;;;5.63;100.00;100187.81;6247358;28;20054;-68
2024/03/16 05:26:01;;;;;;;21.52;10.75;;;;;;;5.71;100.00;100185.75;6247172;28;20132;-68
2024/03/16 05:29:03;;;;;;;19.67;10.50;;;;;;;5.76;100.00;100188.16;6239826;28;20390;-69
2024/03/16 05:32:03;;;;;;;16.98;9.75;;;;;;;5.90;100.00;100185.88;6247028;28;20099;-68
2024/03/16 05:35:07;;;;;;;15.88;9.27;;;;;;;6.01;100.00;100188.94;6245982;28;20456;-68
2024/03/16 05:38:08;;;;;;;21.00;10.57;;;;;;;6.05;100.00;100182.72;6247102;28;20091;-68
2024/03/16 05:41:12;;;;;;;18.90;8.95;;;;;;;6.09;100.00;100185.19;6246194;28;20498;-68
2024/03/16 05:44:13;;;;;;;22.05;9.80;;;;;;;6.13;100.00;100182.38;6247142;28;20072;-68
2024/03/16 05:47:14;;;;;;;18.55;9.23;;;;;;;6.28;100.00;100198.22;6247238;28;20427;-67
2024/03/16 05:50:15;;;;;;;18.05;8.93;;;;;;;6.37;100.00;100188.31;6246038;28;20053;-68
2024/03/16 05:53:16;;;;;;;16.67;9.13;;;;;;;6.55;100.00;100183.28;6262029;28;20152;-68
2024/03/16 05:56:17;;;;;;;16.88;9.30;;;;;;;6.72;100.00;100182.56;6246877;28;20528;-68
2024/03/16 05:59:20;;;;;;;19.08;9.15;;;;;;;6.71;100.00;100188.66;6245491;28;20057;-68
2024/03/16 06:02:22;;;;;;;14.15;8.48;;;;;;;6.98;100.00;100186.59;6246590;28;20076;-69
2024/03/16 06:05:23;;;;;;;16.75;9.05;;;;;;;7.07;100.00;100181.03;6244899;28;20456;-68
2024/03/16 06:08:24;;;;;;;15.27;8.20;;;;;;;7.26;100.00;100188.81;6245588;28;20120;-68
2024/03/16 06:11:26;;;;;;;14.07;8.18;;;;;;;7.46;100.00;100200.91;6245583;28;20062;-69
2024/03/16 06:14:27;;;;;;;15.43;8.55;;;;;;;7.52;100.00;100192.00;6246952;28;20049;-68
2024/03/16 06:17:28;;;;;;;11.88;6.82;;;;;;;7.59;100.00;100194.22;6245652;28;20057;-68
2024/03/16 06:20:29;;;;;;;12.70;7.22;;;;;;;7.71;100.00;100189.38;6245526;28;20470;-68
2024/03/16 06:23:30;;;;;;;9.65;6.50;;;;;;;7.75;100.00;100198.72;6240323;28;20053;-68
2024/03/16 06:26:38;;;;;;;10.95;6.50;;;;;;;7.91;100.00;100191.88;6246810;28;20100;-68
2024/03/16 06:29:40;;;;;;;12.80;6.30;;;;;;;8.06;100.00;100201.53;6228065;28;20049;-68
2024/03/16 06:33:05;;;;;;;10.15;6.13;;;;;;;8.24;100.00;100198.97;6226665;28;20065;-68
2024/03/16 06:36:05;;;;;;;15.45;6.32;;;;;;;8.33;100.00;100200.25;6226506;28;20410;-68
2024/03/16 06:39:10;;;;;;;12.00;6.68;;;;;;;8.43;100.00;100194.56;6241755;28;20062;-68
2024/03/16 06:42:11;;;;;;;7.68;5.15;;;;;;;8.45;100.00;100199.69;6250636;28;20521;-68
2024/03/16 06:45:13;;;;;;;10.68;5.72;;;;;;;8.60;100.00;100198.91;6249153;28;20512;-68
2024/03/16 06:48:14;;;;;;;10.55;5.60;;;;;;;8.72;100.00;100201.81;6250730;28;20548;-68
2024/03/16 06:51:17;;;;;;;8.00;5.07;;;;;;;8.77;100.00;100203.28;6251530;28;20061;-68
2024/03/16 06:54:18;;;;;;;10.60;5.40;;;;;;;8.84;100.00;100196.81;6274420;28;20532;-69
2024/03/16 06:57:19;;;;;;;12.15;6.20;;;;;;;9.08;100.00;100204.28;6262288;28;20053;-68
2024/03/16 07:00:21;;;;;;;10.93;5.32;;;;;;;9.26;99.93;100200.69;6249254;28;20049;-69
2024/03/16 07:03:25;;;;;;;9.23;5.57;;;;;;;9.34;98.90;100196.84;6248887;28;20383;-68
2024/03/16 07:06:26;;;;;;;9.23;6.00;;;;;;;9.58;97.52;100194.69;6250400;28;20049;-68
2024/03/16 07:09:27;;;;;;;10.30;5.78;;;;;;;9.61;94.92;100203.16;6250241;28;20076;-68
2024/03/16 07:12:28;;;;;;;12.43;5.90;;;;;;;9.94;95.35;100194.41;6265371;28;20053;-68
2024/03/16 07:15:31;;;;;;;9.20;6.10;;;;;;;10.17;94.45;100202.69;6249063;28;20049;-68
2024/03/16 07:18:33;;;;;;;9.75;5.85;;;;;;;10.45;92.65;100208.03;6248730;28;20068;-69
2024/03/16 07:21:36;;;;;;;12.02;6.10;;;;;;;10.27;91.71;100204.72;6250029;28;20091;-69
2024/03/16 07:24:39;;;;;;;10.38;5.93;;;;;;;10.42;92.00;100210.84;6249695;28;20045;-69
2024/03/16 07:27:41;;;;;;;12.13;5.72;;;;;;;10.28;91.73;100213.38;6248574;28;20080;-68
2024/03/16 07:30:41;;;;;;;7.82;4.82;;;;;;;10.30;91.70;100202.88;6248320;28;20141;-68
2024/03/16 07:33:44;;;;;;;11.13;5.25;;;;;;;10.54;91.38;100211.03;6248578;28;20482;-68
2024/03/16 07:36:45;;;;;;;8.38;5.47;;;;;;;10.56;92.60;100209.19;6248316;28;20083;-68
2024/03/16 07:39:46;;;;;;;9.25;5.63;;;;;;;10.51;92.69;100203.41;6249605;28;20045;-68
2024/03/16 07:42:50;;;;;;;8.82;5.43;;;;;;;10.43;92.88;100203.84;6241899;28;20054;-68
2024/03/16 07:45:51;;;;;;;14.65;6.22;;;;;;;10.69;92.92;100211.00;6235656;28;20390;-68
2024/03/16 07:48:52;;;;;;;11.68;6.47;;;;;;;10.61;92.22;100222.81;6241981;28;20132;-68
2024/03/16 07:51:53;;;;;;;8.75;5.22;;;;;;;10.66;92.62;100220.75;6234600;28;20089;-68
2024/03/16 07:54:54;;;;;;;12.02;6.22;;;;;;;10.95;90.89;100220.81;6223505;28;20466;-68
2024/03/16 07:57:55;;;;;;;11.25;5.78;;;;;;;11.01;90.31;100215.22;6224497;28;20129;-68
2024/03/16 08:00:56;;;;;;;11.10;6.45;;;;;;;11.23;90.88;100218.22;6245795;28;20061;-68
2024/03/16 08:04:00;;;;;;;10.07;6.03;;;;;;;11.23;89.42;100225.22;6238721;28;20465;-68
2024/03/16 08:07:02;;;;;;;12.13;6.38;;;;;;;11.33;88.87;100226.34;6238568;28;20398;-69
2024/03/16 08:10:03;;;;;;;12.88;6.20;;;;;;;11.44;88.76;100215.22;6223244;28;20636;-69
2024/03/16 08:13:07;;;;;;;10.65;6.10;;;;;;;11.78;88.06;100210.50;6232034;28;20045;-68
2024/03/16 08:16:08;;;;;;;10.65;6.07;;;;;;;11.89;86.85;100215.91;6238419;28;20521;-69
2024/03/16 08:19:09;;;;;;;14.00;6.78;;;;;;;11.90;86.64;100207.09;6243204;28;20049;-69
2024/03/16 08:22:10;;;;;;;10.63;5.85;;;;;;;12.05;84.76;100221.00;6234086;28;20060;-69
2024/03/16 08:25:11;;;;;;;11.55;6.10;;;;;;;11.99;83.27;100219.59;6232614;28;20057;-69
2024/03/16 08:28:12;;;;;;;11.68;6.30;;;;;;;12.06;82.70;100215.63;6233684;28;20045;-68
2024/03/16 08:31:12;;;;;;;12.25;6.45;;;;;;;12.15;82.75;100211.63;6235713;28;20081;-68
2024/03/16 08:34:14;;;;;;;12.43;6.90;;;;;;;12.22;83.16;100214.66;6233404;28;20053;-68
2024/03/16 08:37:14;;;;;;;12.00;6.50;;;;;;;12.24;82.73;100216.22;6231931;28;20042;-68
2024/03/16 08:40:18;;;;;;;11.73;6.18;;;;;;;12.64;82.26;100212.75;6242108;28;20045;-68
2024/03/16 08:43:19;;;;;;;12.68;6.25;;;;;;;12.96;81.33;100207.13;6223937;28;20054;-70
2024/03/16 08:46:20;;;;;;;11.07;6.60;;;;;;;13.00;80.31;100203.34;6234119;28;20057;-70
2024/03/16 08:49:21;;;;;;;15.40;6.95;;;;;;;12.91;78.53;100220.53;6245477;28;20050;-70
2024/03/16 08:52:25;;;;;;;13.43;6.95;;;;;;;13.29;78.33;100215.28;6237196;28;20407;-70
2024/03/16 08:55:26;;;;;;;13.13;7.25;;;;;;;13.46;77.99;100206.25;6239723;28;20130;-69
2024/03/16 08:58:30;;;;;;;12.80;6.60;;;;;;;13.77;76.17;100211.09;6246144;28;20041;-69
2024/03/16 09:01:35;;;;;;;11.75;6.55;;;;;;;13.56;74.63;100202.97;6232932;28;20099;-69
2024/03/16 09:04:36;;;;;;;12.52;7.07;;;;;;;13.72;74.87;100206.19;6246634;28;20059;-69
2024/03/16 09:07:40;;;;;;;10.93;6.35;;;;;;;14.01;73.67;100209.31;6225401;28;20045;-69
2024/03/16 09:10:41;;;;;;;9.88;6.13;;;;;;;13.72;72.24;100208.81;6222190;28;20141;-69
2024/03/16 09:13:46;;;;;;;16.08;6.53;;;;;;;13.81;71.97;100204.69;6223107;28;20046;-70
2024/03/16 09:16:51;;;;;;;12.27;7.13;;;;;;;13.86;72.45;100215.69;6227860;28;20153;-69
2024/03/16 09:19:52;;;;;;;10.02;6.88;;;;;;;13.85;72.56;100214.00;6242223;28;20048;-69
2024/03/16 09:22:55;;;;;;;12.75;7.03;;;;;;;14.15;71.95;100208.31;6269814;28;20397;-69
2024/03/16 09:25:56;;;;;;;11.32;6.60;;;;;;;14.04;70.93;100209.13;6251431;28;20441;-70
2024/03/16 09:28:57;;;;;;;12.52;7.63;;;;;;;14.05;70.98;100208.16;6240677;28;20135;-76
2024/03/16 09:31:59;;;;;;;12.40;6.90;;;;;;;14.24;70.42;100199.75;6230629;28;20042;-76
2024/03/16 09:35:04;;;;;;;12.75;7.03;;;;;;;14.51;71.10;100211.78;6236424;28;20053;-76
2024/03/16 09:38:09;;;;;;;12.13;6.47;;;;;;;14.69;68.75;100210.41;6240219;28;20421;-76
2024/03/16 09:41:20;;;;;;;10.57;6.30;;;;;;;14.66;67.05;100201.94;6229718;28;20056;-76
2024/03/16 09:44:22;;;;;;;9.15;5.95;;;;;;;15.01;65.84;100199.25;6253281;28;20064;-76
2024/03/16 09:47:24;;;;;;;11.50;6.53;;;;;;;15.03;65.52;100207.00;6221580;28;20046;-76
2024/03/16 09:50:28;;;;;;;11.52;6.35;;;;;;;14.98;66.34;100203.91;6219549;28;20494;-76
2024/03/16 09:53:32;;;;;;;12.20;5.80;;;;;;;14.92;64.46;100205.22;6220162;28;20054;-76
2024/03/16 09:56:34;;;;;;;11.27;6.68;;;;;;;15.22;66.30;100193.28;6248223;28;20092;-76
2024/03/16 09:59:35;;;;;;;12.13;6.35;;;;;;;15.34;64.60;100205.47;6249869;28;20049;-76
2024/03/16 10:02:38;;;;;;;10.82;6.38;;;;;;;15.35;64.44;100201.88;6253613;28;20154;-76
2024/03/16 10:05:39;;;;;;;;;;;;;;;15.54;64.82;100198.63;6250006;28;20107;-76
2024/03/16 10:08:40;;;;;;;10.48;6.15;;;;;;;15.35;64.05;100201.88;6228167;28;20403;-76
2024/03/16 10:11:43;;;;;;;12.02;6.45;;;;;;;15.40;64.28;100198.88;6225046;28;20136;-76
2024/03/16 10:14:46;;;;;;;11.75;6.78;;;;;;;15.17;64.06;100198.88;6229003;28;20056;-76
2024/03/16 10:17:50;;;;;;;12.80;6.22;;;;;;;15.45;64.55;100202.00;6234799;28;20405;-69
2024/03/16 10:20:53;;;;;;;9.60;6.28;;;;;;;15.45;64.92;100205.44;6241395;28;20394;-69
2024/03/16 10:23:57;;;;;;;14.15;6.05;;;;;;;15.29;63.68;100202.34;6241183;28;20050;-69
2024/03/16 10:26:58;;;;;;;10.20;6.05;;;;;;;15.29;63.30;100202.34;6236933;28;20060;-69
2024/03/16 10:30:01;;;;;;;7.93;4.78;;;;;;;15.08;61.95;100194.34;6226006;28;20081;-69
2024/03/16 10:33:02;;;;;;;9.65;5.72;;;;;;;15.08;61.54;100203.06;6245904;28;20049;-70
2024/03/16 10:36:03;;;;;;;9.55;5.60;;;;;;;15.30;62.63;100202.25;6235254;28;20057;-70
2024/03/16 10:39:04;;;;;;;10.50;6.30;;;;;;;15.45;62.83;100199.38;6244128;28;20371;-69
2024/03/16 10:42:12;;;;;;;11.38;5.60;;;;;;;15.39;61.26;100192.78;6248257;28;20054;-69
2024/03/16 10:45:14;;;;;;;10.35;6.07;;;;;;;15.55;61.26;100196.84;6248634;28;20512;-69
2024/03/16 10:48:15;;;;;;;8.57;5.47;;;;;;;15.74;61.04;100198.88;6249887;28;20099;-69
2024/03/16 10:51:17;;;;;;;9.73;6.22;;;;;;;15.87;60.38;100200.38;6249791;28;20077;-69
2024/03/16 10:54:19;;;;;;;14.60;6.05;;;;;;;16.30;59.69;100188.97;6264620;28;20456;-70
2024/03/16 10:57:19;;;;;;;8.07;4.85;;;;;;;16.26;58.98;100187.53;6240455;28;20397;-69
2024/03/16 11:00:21;;;;;;;10.02;5.68;;;;;;;16.43;59.23;100183.53;6258326;28;20056;-69
2024/03/16 11:03:27;;;;;;;10.57;4.72;;;;;;;16.38;58.70;100183.06;6238408;28;20088;-69
2024/03/16 11:06:28;;;;;;;9.40;5.45;;;;;;;16.55;58.97;100183.44;6257533;28;20049;-70
2024/03/16 11:09:32;;;;;;;12.93;5.47;;;;;;;16.27;58.16;100183.97;6242230;28;20518;-69
2024/03/16 11:12:33;;;;;;;9.80;5.47;;;;;;;16.40;57.67;100182.94;6241245;28;20057;-69
2024/03/16 11:15:38;;;;;;;9.45;5.20;;;;;;;16.60;58.90;100182.09;6236704;28;20068;-69
2024/03/16 11:18:40;;;;;;;11.73;5.70;;;;;;;16.60;59.30;100173.38;6240728;28;20052;-69
2024/03/16 11:21:47;;;;;;;8.18;5.25;;;;;;;16.70;56.78;100171.63;6241549;28;20053;-69
2024/03/16 11:24:49;;;;;;;5.93;4.65;;;;;;;16.73;55.81;100166.91;6247495;28;20045;-69
2024/03/16 11:27:50;;;;;;;7.28;4.50;;;;;;;16.63;54.60;100167.84;6247706;28;20132;-69
2024/03/16 11:30:51;;;;;;;8.40;5.22;;;;;;;16.77;54.82;100170.13;6248889;28;20057;-76
2024/03/16 11:33:52;;;;;;;6.95;4.55;;;;;;;16.76;53.44;100165.00;6249138;28;20132;-76
2024/03/16 11:36:54;;;;;;;7.35;4.43;;;;;;;16.55;53.63;100171.09;6236585;28;20077;-76
2024/03/16 11:39:55;;;;;;;7.63;4.63;;;;;;;16.55;53.03;100165.84;6233080;28;20597;-76
2024/03/16 11:42:56;;;;;;;8.13;4.80;;;;;;;16.47;53.30;100179.69;6239355;28;20069;-76
2024/03/16 11:45:57;;;;;;;9.13;4.50;;;;;;;16.42;52.33;100168.69;6223185;28;20057;-76
2024/03/16 11:49:00;;;;;;;6.80;4.20;;;;;;;16.37;52.93;100172.66;6229538;28;20071;-76
2024/03/16 11:52:01;;;;;;;8.63;4.88;;;;;;;16.27;53.55;100172.59;6228963;28;20073;-76
2024/03/16 11:55:02;;;;;;;7.00;4.43;;;;;;;16.29;54.50;100170.69;6245824;28;20057;-76
2024/03/16 11:58:09;;;;;;;8.05;5.15;;;;;;;16.22;55.10;100165.06;6247350;28;20477;-76
2024/03/16 12:01:15;;;;;;;10.30;5.63;;;;;;;16.26;55.67;100160.38;6253693;28;20056;-76
2024/03/16 12:04:20;;;;;;;7.78;4.50;;;;;;;16.22;54.56;100162.44;6258581;28;20092;-69
2024/03/16 12:07:24;;;;;;;6.65;4.53;;;;;;;16.27;55.00;100162.91;6261383;28;20042;-69
2024/03/16 12:10:25;;;;;;;9.48;5.00;;;;;;;16.27;53.37;100162.06;6247600;28;20174;-68
2024/03/16 12:13:28;;;;;;;8.68;5.18;;;;;;;16.30;52.61;100160.00;6267104;28;20071;-69
2024/03/16 12:16:30;;;;;;;7.97;4.53;;;;;;;15.98;54.04;100156.56;6250879;28;20098;-70
2024/03/16 12:19:32;;;;;;;9.40;4.65;;;;;;;16.11;53.81;100151.97;6246931;28;20092;-70
2024/03/16 12:22:33;;;;;;;8.75;5.30;;;;;;;16.03;54.90;100149.13;6245997;28;20414;-70
2024/03/16 12:25:36;;;;;;;8.98;5.10;;;;;;;16.31;54.20;100155.59;6246123;28;20157;-69
2024/03/16 12:28:37;;;;;;;10.07;5.10;;;;;;;16.33;54.10;100145.75;6247177;28;20081;-69
2024/03/16 12:31:39;;;;;;;9.38;4.80;;;;;;;16.28;54.18;100146.13;6240250;28;20049;-69
2024/03/16 12:34:39;;;;;;;6.87;4.57;;;;;;;16.43;54.05;100143.16;6241210;28;20103;-69
2024/03/16 12:37:40;;;;;;;8.80;4.60;;;;;;;16.33;54.30;100140.50;6242567;28;20670;-69
2024/03/16 12:40:44;;;;;;;8.30;4.43;;;;;;;16.67;53.08;100135.00;6245780;28;20433;-69
2024/03/16 12:43:45;;;;;;;9.40;4.30;;;;;;;16.77;52.65;100124.53;6241198;28;20387;-69
2024/03/16 12:46:45;;;;;;;8.43;5.05;;;;;;;16.83;53.44;100130.13;6233444;28;20045;-69
2024/03/16 12:49:46;;;;;;;9.25;5.28;;;;;;;16.89;53.38;100129.59;6261684;28;20053;-69
2024/03/16 12:52:49;;;;;;;10.77;5.75;;;;;;;16.74;52.75;100128.25;6245031;28;20053;-69
2024/03/16 12:55:50;;;;;;;9.30;5.47;;;;;;;16.70;53.06;100124.22;6245048;28;20056;-69
2024/03/16 12:58:51;;;;;;;10.10;4.93;;;;;;;16.52;53.49;100122.16;6244498;28;20149;-69
2024/03/16 13:01:52;;;;;;;9.55;5.60;;;;;;;16.69;53.04;100126.00;6234879;28;20506;-70
2024/03/16 13:04:56;;;;;;;11.32;5.40;;;;;;;16.68;54.30;100123.50;6219909;28;20093;-69
2024/03/16 13:07:59;;;;;;;10.85;4.97;;;;;;;16.51;53.42;100119.66;6238349;28;20045;-69
2024/03/16 13:11:01;;;;;;;14.88;7.07;;;;;;;16.41;53.13;100119.63;6237603;28;20080;-69
2024/03/16 13:14:05;;;;;;;12.00;4.97;;;;;;;16.44;52.96;100121.16;6251293;28;20052;-69
2024/03/16 13:17:07;;;;;;;7.65;4.68;;;;;;;16.49;50.79;100114.53;6234524;28;20042;-70
2024/03/16 13:20:08;;;;;;;10.00;5.15;;;;;;;16.54;51.45;100105.41;6230911;28;20054;-69
2024/03/16 13:23:09;;;;;;;8.80;5.00;;;;;;;16.49;52.29;100114.53;6222786;28;20143;-69
2024/03/16 13:26:16;;;;;;;7.80;4.78;;;;;;;16.52;52.48;100105.53;6248624;28;20057;-69
2024/03/16 13:29:19;;;;;;;10.95;5.53;;;;;;;16.30;52.21;100101.25;6248475;28;20053;-69
2024/03/16 13:32:23;;;;;;;12.02;5.20;;;;;;;16.26;52.58;100103.28;6239705;28;20489;-69
2024/03/16 13:35:24;;;;;;;8.80;5.40;;;;;;;16.36;53.02;100095.47;6233039;28;20054;-69
2024/03/16 13:38:25;;;;;;;11.63;5.53;;;;;;;16.25;52.97;100099.00;6233997;28;20409;-69
2024/03/16 13:41:28;;;;;;;8.98;5.65;;;;;;;16.27;53.31;100098.88;6232757;28;20056;-69
2024/03/16 13:44:29;;;;;;;8.57;5.28;;;;;;;16.11;53.74;100104.59;6233362;28;20049;-69
2024/03/16 13:47:31;;;;;;;11.40;6.57;;;;;;;15.83;55.80;100106.03;6232444;28;20050;-69
2024/03/16 13:50:31;;;;;;;10.87;6.87;;;;;;;15.59;56.56;100099.16;6237697;28;20532;-69
2024/03/16 13:53:32;;;;;;;12.93;7.70;;;;;;;15.67;58.65;100098.56;6241470;28;20054;-69
2024/03/16 13:56:33;;;;;;;11.32;7.03;;;;;;;15.56;58.59;100093.31;6236646;28;20042;-69